createdAt,value
2023-04-06T00:00:11.064Z,42.19
2023-04-06T00:02:38.202Z,42.56
2023-04-06T00:05:05.099Z,42.86
2023-04-06T00:07:31.731Z,42.87
2023-04-06T00:09:58.260Z,42.60
2023-04-06T00:12:25.326Z,42.79
2023-04-06T00:14:51.899Z,42.76
2023-04-06T00:17:18.815Z,43.91
2023-04-06T00:19:45.585Z,43.46
2023-04-06T00:22:12.398Z,43.71
2023-04-06T00:24:38.978Z,43.53
2023-04-06T00:27:05.685Z,43.32
2023-04-06T00:29:32.249Z,43.25
2023-04-06T00:31:59.112Z,43.05
2023-04-06T00:34:25.819Z,42.55
2023-04-06T00:36:52.861Z,42.83
2023-04-06T00:39:20.914Z,42.78
2023-04-06T00:41:51.444Z,42.63
2023-04-06T00:44:18.108Z,42.68
2023-04-06T00:46:44.883Z,42.93
2023-04-06T00:49:12.069Z,42.63
2023-04-06T00:51:38.944Z,42.82
2023-04-06T00:54:06.505Z,43.11
2023-04-06T00:56:33.085Z,42.80
2023-04-06T00:58:59.928Z,43.18
2023-04-06T01:01:27.362Z,43.10
2023-04-06T01:03:54.982Z,43.17
2023-04-06T01:06:21.597Z,43.16
2023-04-06T01:08:48.247Z,43.12
2023-04-06T01:11:14.929Z,43.19
2023-04-06T01:13:41.757Z,43.21
2023-04-06T01:16:08.547Z,43.44
2023-04-06T01:18:36.265Z,43.18
2023-04-06T01:21:02.978Z,44.18
2023-04-06T01:23:29.604Z,43.96
2023-04-06T01:25:56.680Z,44.00
2023-04-06T01:28:23.414Z,44.16
2023-04-06T01:30:50.596Z,43.86
2023-04-06T01:33:17.228Z,43.88
2023-04-06T01:35:44.301Z,44.25
2023-04-06T01:38:10.968Z,44.21
2023-04-06T01:40:37.955Z,44.03
2023-04-06T01:43:04.569Z,43.73
2023-04-06T01:45:31.550Z,43.88
2023-04-06T01:47:58.223Z,44.07
2023-04-06T01:50:25.011Z,44.09
2023-04-06T01:52:54.691Z,43.91
2023-04-06T01:55:21.370Z,43.84
2023-04-06T01:57:47.918Z,43.74
2023-04-06T02:00:15.451Z,43.74
2023-04-06T02:02:42.155Z,43.74
2023-04-06T02:05:09.490Z,43.64
2023-04-06T02:07:36.094Z,43.92
2023-04-06T02:10:03.895Z,44.06
2023-04-06T02:12:31.834Z,44.35
2023-04-06T02:14:58.972Z,43.91
2023-04-06T02:17:25.566Z,43.58
2023-04-06T02:19:52.494Z,43.81
2023-04-06T02:22:19.152Z,43.74
2023-04-06T02:24:46.594Z,43.76
2023-04-06T02:27:14.518Z,43.46
2023-04-06T02:29:41.402Z,43.28
2023-04-06T02:32:08.451Z,43.66
2023-04-06T02:34:35.401Z,43.54
2023-04-06T02:37:02.534Z,44.48
2023-04-06T02:39:29.205Z,44.20
2023-04-06T02:41:57.033Z,43.94
2023-04-06T02:44:24.008Z,43.67
2023-04-06T02:46:51.327Z,44.53
2023-04-06T02:49:17.928Z,44.46
2023-04-06T02:51:44.493Z,44.42
2023-04-06T02:54:11.209Z,44.19
2023-04-06T02:56:37.910Z,44.02
2023-04-06T02:59:04.665Z,45.08
2023-04-06T03:01:31.606Z,44.73
2023-04-06T03:03:58.235Z,45.20
2023-04-06T03:06:24.811Z,45.69
2023-04-06T03:08:51.593Z,45.74
2023-04-06T03:11:18.220Z,45.35
2023-04-06T03:13:47.970Z,45.54
2023-04-06T03:16:14.673Z,46.89
2023-04-06T03:18:41.325Z,45.82
2023-04-06T03:21:07.887Z,46.51
2023-04-06T03:23:34.631Z,45.70
2023-04-06T03:26:02.448Z,46.05
2023-04-06T03:28:31.417Z,46.24
2023-04-06T03:30:58.079Z,46.03
2023-04-06T03:33:24.900Z,46.04
2023-04-06T03:35:52.113Z,45.67
2023-04-06T03:38:18.875Z,45.22
2023-04-06T03:40:47.564Z,45.80
2023-04-06T03:43:14.523Z,46.24
2023-04-06T03:45:41.141Z,45.66
2023-04-06T03:48:08.044Z,45.73
2023-04-06T03:50:34.929Z,45.79
2023-04-06T03:53:04.035Z,45.34
2023-04-06T03:55:30.853Z,44.72
2023-04-06T03:57:57.562Z,45.21
2023-04-06T04:00:24.131Z,45.84
2023-04-06T04:02:50.994Z,45.93
2023-04-06T04:05:17.974Z,45.73
2023-04-06T04:07:44.706Z,45.45
2023-04-06T04:10:11.259Z,45.17
2023-04-06T04:12:37.786Z,46.05
2023-04-06T04:15:04.898Z,45.99
2023-04-06T04:17:31.550Z,45.70
2023-04-06T04:19:58.160Z,44.83
2023-04-06T04:22:24.780Z,45.17
2023-04-06T04:24:51.494Z,44.79
2023-04-06T04:27:18.098Z,44.83
2023-04-06T04:29:44.803Z,44.78
2023-04-06T04:32:11.731Z,44.69
2023-04-06T04:34:41.166Z,45.24
2023-04-06T04:37:07.921Z,44.78
2023-04-06T04:39:34.542Z,44.51
2023-04-06T04:42:01.542Z,44.57
2023-04-06T04:44:28.127Z,44.60
2023-04-06T04:46:54.749Z,44.68
2023-04-06T04:49:21.352Z,44.48
2023-04-06T04:51:48.123Z,44.64
2023-04-06T04:54:14.959Z,45.11
2023-04-06T04:56:41.544Z,44.70
2023-04-06T04:59:08.918Z,44.34
2023-04-06T05:01:47.423Z,44.53
2023-04-06T05:04:21.558Z,45.25
2023-04-06T05:06:48.152Z,44.93
2023-04-06T05:09:14.981Z,44.66
2023-04-06T05:11:41.667Z,44.57
2023-04-06T05:14:08.469Z,44.42
2023-04-06T05:16:35.347Z,44.47
2023-04-06T05:19:02.270Z,44.65
2023-04-06T05:21:29.298Z,44.10
2023-04-06T05:23:56.001Z,44.41
2023-04-06T05:26:22.644Z,44.02
2023-04-06T05:28:49.279Z,43.76
2023-04-06T05:31:17.259Z,43.37
2023-04-06T05:33:44.492Z,43.36
2023-04-06T05:36:13.712Z,43.10
2023-04-06T05:38:41.581Z,42.86
2023-04-06T05:41:08.237Z,42.75
2023-04-06T05:43:34.964Z,42.95
2023-04-06T05:46:01.577Z,42.81
2023-04-06T05:48:28.220Z,42.68
2023-04-06T05:50:56.070Z,42.53
2023-04-06T05:53:22.737Z,41.83
2023-04-06T05:55:49.560Z,41.72
2023-04-06T05:58:18.168Z,41.48
2023-04-06T06:00:46.849Z,41.69
2023-04-06T06:03:13.833Z,41.21
2023-04-06T06:05:40.639Z,41.49
2023-04-06T06:08:08.318Z,41.76
2023-04-06T06:10:35.628Z,41.51
2023-04-06T06:13:02.297Z,41.53
2023-04-06T06:15:29.174Z,41.19
2023-04-06T06:17:55.745Z,40.79
2023-04-06T06:20:23.134Z,41.05
2023-04-06T06:22:49.780Z,40.47
2023-04-06T06:25:17.015Z,40.38
2023-04-06T06:27:43.965Z,39.72
2023-04-06T06:30:10.986Z,39.88
2023-04-06T06:32:37.704Z,39.45
2023-04-06T06:35:05.154Z,39.07
2023-04-06T06:37:31.807Z,38.93
2023-04-06T06:39:58.784Z,38.84
2023-04-06T06:42:25.342Z,38.68
2023-04-06T06:44:55.012Z,38.04
2023-04-06T06:47:21.588Z,38.69
2023-04-06T06:49:48.223Z,37.46
2023-04-06T06:52:14.981Z,37.32
2023-04-06T06:54:41.727Z,36.67
2023-04-06T06:57:08.316Z,35.06
2023-04-06T06:59:35.016Z,34.36
2023-04-06T07:02:01.847Z,34.76
2023-04-06T07:04:28.493Z,34.37
2023-04-06T07:06:55.167Z,34.76
2023-04-06T07:09:21.881Z,35.67
2023-04-06T07:11:49.210Z,34.44
2023-04-06T07:14:16.966Z,34.62
2023-04-06T07:16:46.067Z,34.75
2023-04-06T07:19:12.842Z,34.10
2023-04-06T07:21:39.823Z,34.12
2023-04-06T07:24:06.797Z,33.04
2023-04-06T07:26:33.875Z,33.14
2023-04-06T07:29:00.627Z,33.67
2023-04-06T07:31:27.450Z,32.94
2023-04-06T07:33:54.714Z,32.95
2023-04-06T07:36:21.573Z,32.01
2023-04-06T07:38:48.275Z,32.36
2023-04-06T07:41:14.876Z,31.62
2023-04-06T07:43:41.560Z,31.55
2023-04-06T07:46:08.244Z,32.06
2023-04-06T07:48:35.184Z,31.32
2023-04-06T07:51:03.663Z,31.23
2023-04-06T07:53:30.322Z,30.74
2023-04-06T07:55:57.109Z,30.00
2023-04-06T07:58:24.171Z,30.07
2023-04-06T08:00:50.931Z,30.66
2023-04-06T08:03:18.166Z,30.64
2023-04-06T08:05:45.564Z,30.49
2023-04-06T08:08:12.280Z,30.29
2023-04-06T08:10:38.944Z,30.79
2023-04-06T08:13:05.594Z,30.42
2023-04-06T08:15:32.323Z,30.19
2023-04-06T08:17:58.895Z,30.77
2023-04-06T08:20:25.661Z,30.33
2023-04-06T08:22:53.644Z,29.93
2023-04-06T08:25:20.558Z,30.43
2023-04-06T08:27:47.321Z,30.29
2023-04-06T08:30:16.010Z,30.07
2023-04-06T08:32:43.087Z,30.83
2023-04-06T08:35:10.146Z,29.80
2023-04-06T08:37:36.760Z,30.75
2023-04-06T08:40:04.335Z,30.17
2023-04-06T08:42:33.989Z,29.52
2023-04-06T08:45:01.401Z,29.13
2023-04-06T08:47:28.338Z,28.84
2023-04-06T08:49:54.986Z,28.10
2023-04-06T08:52:21.630Z,28.32
2023-04-06T08:54:48.689Z,28.83
2023-04-06T08:57:16.082Z,28.12
2023-04-06T08:59:43.102Z,27.51
2023-04-06T09:02:18.292Z,27.96
2023-04-06T09:04:47.445Z,29.26
2023-04-06T09:07:15.484Z,28.52
2023-04-06T09:09:48.510Z,27.27
2023-04-06T09:12:32.252Z,25.73
2023-04-06T09:14:59.667Z,25.33
2023-04-06T09:17:33.536Z,25.56
2023-04-06T09:20:01.753Z,25.78
2023-04-06T09:22:37.379Z,24.13
2023-04-06T09:25:04.432Z,22.58
2023-04-06T09:27:36.418Z,21.89
2023-04-06T09:30:14.951Z,21.55
2023-04-06T09:33:00.722Z,22.29
2023-04-06T09:35:28.533Z,22.75
2023-04-06T09:37:56.333Z,21.09
2023-04-06T09:40:23.284Z,17.70
2023-04-06T09:42:53.637Z,14.58
2023-04-06T09:45:21.798Z,12.94
2023-04-06T09:47:48.865Z,14.11
2023-04-06T09:50:17.284Z,14.19
2023-04-06T09:52:49.860Z,14.50
2023-04-06T09:55:24.613Z,13.30
2023-04-06T09:58:03.910Z,11.08
2023-04-06T10:00:33.757Z,12.88
2023-04-06T10:03:18.800Z,10.33
2023-04-06T10:05:57.024Z,9.55
2023-04-06T10:08:26.295Z,8.08
2023-04-06T10:10:53.610Z,11.28
2023-04-06T10:13:20.603Z,12.47
2023-04-06T10:15:48.044Z,15.42
2023-04-06T10:18:15.222Z,15.36
2023-04-06T10:20:51.497Z,17.30
2023-04-06T10:23:30.384Z,16.68
2023-04-06T10:25:58.837Z,17.68
2023-04-06T10:28:26.589Z,17.39
2023-04-06T10:31:05.834Z,17.90
2023-04-06T10:33:35.762Z,16.43
2023-04-06T10:36:16.087Z,15.91
2023-04-06T10:38:43.634Z,15.58
2023-04-06T10:41:11.677Z,17.65
2023-04-06T10:43:39.770Z,17.39
2023-04-06T10:46:08.085Z,16.90
2023-04-06T10:48:46.620Z,16.54
2023-04-06T10:51:18.071Z,15.79
2023-04-06T10:53:47.764Z,16.64
2023-04-06T10:56:15.857Z,15.61
2023-04-06T10:59:00.928Z,15.13
2023-04-06T11:01:28.549Z,13.45
2023-04-06T11:03:56.972Z,14.37
2023-04-06T11:06:25.590Z,13.79
2023-04-06T11:08:52.932Z,14.36
2023-04-06T11:11:21.791Z,17.35
2023-04-06T11:13:52.256Z,16.55
2023-04-06T11:16:24.916Z,16.82
2023-04-06T11:18:53.850Z,16.12
2023-04-06T11:21:21.987Z,17.57
2023-04-06T11:23:48.638Z,16.28
2023-04-06T11:26:15.868Z,16.71
2023-04-06T11:28:44.330Z,16.51
2023-04-06T11:31:12.438Z,15.58
2023-04-06T11:33:39.898Z,17.01
2023-04-06T11:36:10.949Z,15.67
2023-04-06T11:38:40.276Z,16.06
2023-04-06T11:41:07.407Z,16.40
2023-04-06T11:43:34.051Z,16.29
2023-04-06T11:46:03.207Z,16.46
2023-04-06T11:48:30.507Z,16.95
2023-04-06T11:51:04.670Z,16.49
2023-04-06T11:53:31.537Z,15.89
2023-04-06T11:55:58.102Z,14.37
2023-04-06T11:58:24.726Z,12.85
2023-04-06T12:00:51.486Z,13.91
2023-04-06T12:03:18.156Z,14.56
2023-04-06T12:05:45.109Z,16.05
2023-04-06T12:08:11.865Z,16.71
2023-04-06T12:10:38.704Z,17.09
2023-04-06T12:13:05.702Z,16.61
2023-04-06T12:15:32.364Z,18.62
2023-04-06T12:18:00.015Z,19.01
2023-04-06T12:20:27.645Z,18.96
2023-04-06T12:22:54.552Z,18.97
2023-04-06T12:25:21.572Z,16.91
2023-04-06T12:27:49.669Z,17.91
2023-04-06T12:30:16.670Z,17.67
2023-04-06T12:32:43.452Z,19.11
2023-04-06T12:35:12.589Z,19.90
2023-04-06T12:37:39.241Z,19.47
2023-04-06T12:40:06.394Z,20.04
2023-04-06T12:42:33.146Z,19.95
2023-04-06T12:45:01.419Z,19.58
2023-04-06T12:47:28.792Z,20.17
2023-04-06T12:49:55.782Z,20.40
2023-04-06T12:52:22.406Z,20.03
2023-04-06T12:54:50.077Z,19.86
2023-04-06T12:57:18.104Z,20.76
2023-04-06T12:59:45.825Z,21.93
2023-04-06T13:02:12.998Z,22.22
2023-04-06T13:04:40.474Z,21.41
2023-04-06T13:07:07.070Z,22.02
2023-04-06T13:09:34.132Z,21.04
2023-04-06T13:12:01.979Z,21.60
2023-04-06T13:14:28.933Z,21.97
2023-04-06T13:16:55.785Z,21.74
2023-04-06T13:19:22.740Z,21.78
2023-04-06T13:21:49.606Z,22.05
2023-04-06T13:24:17.795Z,22.35
2023-04-06T13:26:44.979Z,22.40
2023-04-06T13:29:11.888Z,23.11
2023-04-06T13:31:39.845Z,22.97
2023-04-06T13:34:06.950Z,22.04
2023-04-06T13:36:33.668Z,23.93
2023-04-06T13:39:00.913Z,24.58
2023-04-06T13:41:27.867Z,23.98
2023-04-06T13:43:54.482Z,24.15
2023-04-06T13:46:21.377Z,23.74
2023-04-06T13:48:48.206Z,24.40
2023-04-06T13:51:15.941Z,24.15
2023-04-06T13:53:42.647Z,24.84
2023-04-06T13:56:09.354Z,24.60
2023-04-06T13:58:37.129Z,24.47
2023-04-06T14:01:08.536Z,23.89
2023-04-06T14:03:35.900Z,24.10
2023-04-06T14:08:42.604Z,25.56
2023-04-06T14:11:13.383Z,25.92
2023-04-06T14:13:40.438Z,26.54
2023-04-06T14:16:08.046Z,26.46
2023-04-06T14:18:35.119Z,26.42
2023-04-06T14:21:01.713Z,26.96
2023-04-06T14:23:29.150Z,27.29
2023-04-06T14:26:06.420Z,26.52
2023-04-06T14:28:37.018Z,27.31
2023-04-06T14:31:11.567Z,29.09
2023-04-06T14:33:38.072Z,28.51
2023-04-06T14:36:05.927Z,27.77
2023-04-06T14:38:36.512Z,28.71
2023-04-06T14:41:03.129Z,28.16
2023-04-06T14:43:29.706Z,28.47
2023-04-06T14:46:00.900Z,28.62
2023-04-06T14:48:27.656Z,28.17
2023-04-06T14:50:55.883Z,28.48
2023-04-06T14:53:23.658Z,26.63
2023-04-06T14:55:52.583Z,26.62
2023-04-06T14:58:20.051Z,27.09
2023-04-06T15:00:47.223Z,27.32
2023-04-06T15:03:14.243Z,27.22
2023-04-06T15:05:41.249Z,26.41
2023-04-06T15:08:10.100Z,27.13
2023-04-06T15:10:37.266Z,27.16
2023-04-06T15:13:04.175Z,27.47
2023-04-06T15:15:31.062Z,28.07
2023-04-06T15:17:58.298Z,28.20
2023-04-06T15:20:24.939Z,27.79
2023-04-06T15:22:51.559Z,30.45
2023-04-06T15:25:18.290Z,30.11
2023-04-06T15:27:48.458Z,29.90
2023-04-06T15:30:15.098Z,29.89
2023-04-06T15:32:52.844Z,30.28
2023-04-06T15:35:19.442Z,31.16
2023-04-06T15:37:46.522Z,30.67
2023-04-06T15:40:15.325Z,30.96
2023-04-06T15:42:43.226Z,31.47
2023-04-06T15:45:11.274Z,31.77
2023-04-06T15:47:39.406Z,32.06
2023-04-06T15:50:09.308Z,31.80
2023-04-06T15:52:37.057Z,32.00
2023-04-06T15:55:05.896Z,31.74
2023-04-06T15:57:32.919Z,33.62
2023-04-06T15:59:59.829Z,32.68
2023-04-06T16:02:27.070Z,34.19
2023-04-06T16:05:04.104Z,34.16
2023-04-06T16:07:31.952Z,34.88
2023-04-06T16:10:01.652Z,34.93
2023-04-06T16:12:29.172Z,34.63
2023-04-06T16:14:58.246Z,34.47
2023-04-06T16:17:24.762Z,35.20
2023-04-06T16:19:51.500Z,35.61
2023-04-06T16:22:18.123Z,35.86
2023-04-06T16:24:44.794Z,35.84
2023-04-06T16:27:12.171Z,36.71
2023-04-06T16:29:38.830Z,36.70
2023-04-06T16:32:05.875Z,35.90
2023-04-06T16:34:35.388Z,37.71
2023-04-06T16:37:02.153Z,36.98
2023-04-06T16:39:28.860Z,38.01
2023-04-06T16:41:56.774Z,37.76
2023-04-06T16:44:23.721Z,38.39
2023-04-06T16:46:50.966Z,39.83
2023-04-06T16:49:20.049Z,40.30
2023-04-06T16:51:47.030Z,40.16
2023-04-06T16:54:13.650Z,40.45
2023-04-06T16:56:40.797Z,41.29
2023-04-06T16:59:10.826Z,41.28
2023-04-06T17:01:37.752Z,42.06
2023-04-06T17:04:04.496Z,42.26
2023-04-06T17:06:31.643Z,42.84
2023-04-06T17:08:59.749Z,43.34
2023-04-06T17:11:31.714Z,44.11
2023-04-06T17:13:59.323Z,45.65
2023-04-06T17:16:27.821Z,46.30
2023-04-06T17:18:56.140Z,46.74
2023-04-06T17:21:22.676Z,47.80
2023-04-06T17:23:49.501Z,50.28
2023-04-06T17:26:16.260Z,52.50
2023-04-06T17:28:42.835Z,53.75
2023-04-06T17:31:10.919Z,53.11
2023-04-06T17:33:42.685Z,54.71
2023-04-06T17:36:12.412Z,55.22
2023-04-06T17:38:43.506Z,56.02
2023-04-06T17:41:14.149Z,57.13
2023-04-06T17:43:41.278Z,57.27
2023-04-06T17:46:08.100Z,57.88
2023-04-06T17:48:34.898Z,58.73
2023-04-06T17:51:01.761Z,61.08
2023-04-06T17:53:32.195Z,60.62
2023-04-06T17:56:03.509Z,61.21
2023-04-06T17:58:30.634Z,61.13
2023-04-06T18:00:57.842Z,61.24
2023-04-06T18:03:24.742Z,63.20
2023-04-06T18:05:51.712Z,64.68
2023-04-06T18:08:18.910Z,65.10
2023-04-06T18:10:46.433Z,66.70
2023-04-06T18:13:13.634Z,65.92
2023-04-06T18:15:40.583Z,66.52
2023-04-06T18:18:07.928Z,68.78
2023-04-06T18:20:39.675Z,68.17
2023-04-06T18:23:06.834Z,68.36
2023-04-06T18:25:39.031Z,67.72
2023-04-06T18:28:06.802Z,68.43
2023-04-06T18:30:33.362Z,69.15
2023-04-06T18:33:00.472Z,69.52
2023-04-06T18:35:27.152Z,69.62
2023-04-06T18:37:54.522Z,68.46
2023-04-06T18:40:32.163Z,68.31
2023-04-06T18:43:00.477Z,67.85
2023-04-06T18:45:28.043Z,67.89
2023-04-06T18:47:56.966Z,69.02
2023-04-06T18:50:23.604Z,68.88
2023-04-06T18:52:55.338Z,67.68
2023-04-06T18:55:24.568Z,67.73
2023-04-06T18:57:54.779Z,66.78
2023-04-06T19:00:21.486Z,66.49
2023-04-06T19:02:50.502Z,68.04
2023-04-06T19:05:18.045Z,69.01
2023-04-06T19:07:49.512Z,69.14
2023-04-06T19:10:16.550Z,68.96
2023-04-06T19:12:44.133Z,68.73
2023-04-06T19:15:15.692Z,67.51
2023-04-06T19:17:43.032Z,67.04
2023-04-06T19:20:10.102Z,67.80
2023-04-06T19:22:38.244Z,68.44
2023-04-06T19:25:06.656Z,69.96
2023-04-06T19:27:35.178Z,68.66
2023-04-06T19:30:04.535Z,70.33
2023-04-06T19:32:31.865Z,70.13
2023-04-06T19:34:59.691Z,70.47
2023-04-06T19:37:27.269Z,69.70
2023-04-06T19:39:53.993Z,70.29
2023-04-06T19:42:23.200Z,70.17
2023-04-06T19:44:50.143Z,70.78
2023-04-06T19:47:18.332Z,70.25
2023-04-06T19:49:45.408Z,71.15
2023-04-06T19:52:12.381Z,71.25
2023-04-06T19:54:39.654Z,71.37
2023-04-06T19:57:06.926Z,71.75
2023-04-06T19:59:34.650Z,70.72
2023-04-06T20:02:01.417Z,70.33
2023-04-06T20:04:29.281Z,71.02
2023-04-06T20:06:55.968Z,71.64
2023-04-06T20:09:22.873Z,70.85
2023-04-06T20:11:49.383Z,72.15
2023-04-06T20:14:17.885Z,71.56
2023-04-06T20:16:44.609Z,71.06
2023-04-06T20:19:11.395Z,72.38
2023-04-06T20:21:39.487Z,72.17
2023-04-06T20:24:07.052Z,72.11
2023-04-06T20:26:33.914Z,73.06
2023-04-06T20:29:00.943Z,74.52
2023-04-06T20:31:28.217Z,73.65
2023-04-06T20:33:55.899Z,72.94
2023-04-06T20:36:22.512Z,73.23
2023-04-06T20:38:49.460Z,72.00
2023-04-06T20:41:16.546Z,72.62
2023-04-06T20:43:43.318Z,74.76
2023-04-06T20:46:15.815Z,74.51
2023-04-06T20:48:42.561Z,74.91
2023-04-06T20:51:09.292Z,72.95
2023-04-06T20:53:35.967Z,73.44
2023-04-06T20:56:03.003Z,73.14
2023-04-06T20:58:29.679Z,72.51
2023-04-06T21:00:56.596Z,73.16
2023-04-06T21:03:24.299Z,72.78
2023-04-06T21:05:55.850Z,73.06
2023-04-06T21:08:22.438Z,72.98
2023-04-06T21:10:49.026Z,73.10
2023-04-06T21:13:15.665Z,72.74
2023-04-06T21:15:42.663Z,73.39
2023-04-06T21:18:09.293Z,72.95
2023-04-06T21:20:36.060Z,72.87
2023-04-06T21:23:02.749Z,72.80
2023-04-06T21:25:29.345Z,73.10
2023-04-06T21:27:56.031Z,71.87
2023-04-06T21:30:22.708Z,71.40
2023-04-06T21:32:49.254Z,70.57
2023-04-06T21:35:16.532Z,71.18
2023-04-06T21:37:43.089Z,71.71
2023-04-06T21:40:10.150Z,71.01
2023-04-06T21:42:36.851Z,70.80
2023-04-06T21:45:03.758Z,71.14
2023-04-06T21:47:30.266Z,70.33
2023-04-06T21:49:56.849Z,70.39
2023-04-06T21:52:23.392Z,68.99
2023-04-06T21:54:49.890Z,70.04
2023-04-06T21:57:16.476Z,70.48
2023-04-06T21:59:43.080Z,70.57
2023-04-06T22:02:09.695Z,68.91
2023-04-06T22:04:36.790Z,68.61
2023-04-06T22:07:03.692Z,67.67
2023-04-06T22:09:31.401Z,67.50
2023-04-06T22:11:58.102Z,68.10
2023-04-06T22:14:25.727Z,67.64
2023-04-06T22:16:52.476Z,67.79
2023-04-06T22:19:19.005Z,67.70
2023-04-06T22:21:45.743Z,68.28
2023-04-06T22:24:12.997Z,66.73
2023-04-06T22:26:39.805Z,66.55
2023-04-06T22:29:06.536Z,65.54
2023-04-06T22:31:33.089Z,66.40
2023-04-06T22:33:59.681Z,68.78
2023-04-06T22:36:27.270Z,67.62
2023-04-06T22:38:53.840Z,67.24
2023-04-06T22:41:21.069Z,67.32
2023-04-06T22:43:47.637Z,68.22
2023-04-06T22:46:14.136Z,67.62
2023-04-06T22:48:40.725Z,67.44
2023-04-06T22:51:07.363Z,68.14
2023-04-06T22:53:34.273Z,66.77
2023-04-06T22:56:00.865Z,68.41
2023-04-06T22:58:27.619Z,67.44
2023-04-06T23:00:54.149Z,66.25
2023-04-06T23:03:21.251Z,69.15
2023-04-06T23:05:47.864Z,71.03
2023-04-06T23:08:14.588Z,70.55
2023-04-06T23:10:43.759Z,69.62
2023-04-06T23:13:10.871Z,69.75
2023-04-06T23:15:37.558Z,68.85
2023-04-06T23:18:04.228Z,69.50
2023-04-06T23:20:32.243Z,69.77
2023-04-06T23:22:58.967Z,70.28
2023-04-06T23:25:27.135Z,70.25
2023-04-06T23:27:53.760Z,70.26
2023-04-06T23:30:20.519Z,69.70
2023-04-06T23:32:47.229Z,70.93
2023-04-06T23:35:15.235Z,71.35
2023-04-06T23:37:41.913Z,71.04
2023-04-06T23:40:09.011Z,70.20
2023-04-06T23:42:35.479Z,70.76
2023-04-06T23:45:06.146Z,70.18
2023-04-06T23:47:33.139Z,72.58
2023-04-06T23:50:00.191Z,71.04
2023-04-06T23:52:27.345Z,71.10
2023-04-06T23:54:53.982Z,69.99
2023-04-06T23:57:20.559Z,71.30
2023-04-06T23:59:47.120Z,71.29
